sensor_id;sensor_type;location;lat;lon;timestamp;P1;durP1;ratioP1;P2;durP2;ratioP2
57615;SDS011;43816;52.054;-9.494;2023-08-12T00:00:05;2.70;;;2.60;;
57615;SDS011;43816;52.054;-9.494;2023-08-12T00:00:22;2.75;;;2.60;;
57615;SDS011;43816;52.054;-9.494;2023-08-12T00:00:35;2.60;;;2.50;;
57615;SDS011;43816;52.054;-9.494;2023-08-12T00:00:48;2.47;;;2.38;;
57615;SDS011;43816;52.054;-9.494;2023-08-12T00:00:58;2.35;;;2.25;;
57615;SDS011;43816;52.054;-9.494;2023-08-12T00:01:27;2.30;;;2.20;;
57615;SDS011;43816;52.054;-9.494;2023-08-12T00:01:48;2.67;;;2.58;;
57615;SDS011;43816;52.054;-9.494;2023-08-12T00:02:26;2.55;;;2.45;;
57615;SDS011;43816;52.054;-9.494;2023-08-12T00:02:38;2.72;;;2.55;;
57615;SDS011;43816;52.054;-9.494;2023-08-12T00:02:58;2.70;;;2.60;;
57615;SDS011;43816;52.054;-9.494;2023-08-12T00:03:11;2.50;;;2.40;;
57615;SDS011;43816;52.054;-9.494;2023-08-12T00:03:22;2.42;;;2.33;;
57615;SDS011;43816;52.054;-9.494;2023-08-12T00:03:37;2.60;;;2.50;;
57615;SDS011;43816;52.054;-9.494;2023-08-12T00:03:47;2.70;;;2.60;;
57615;SDS011;43816;52.054;-9.494;2023-08-12T00:03:57;2.63;;;2.53;;
57615;SDS011;43816;52.054;-9.494;2023-08-12T00:04:11;2.50;;;2.40;;
57615;SDS011;43816;52.054;-9.494;2023-08-12T00:04:24;2.40;;;2.30;;
57615;SDS011;43816;52.054;-9.494;2023-08-12T00:04:34;2.50;;;2.40;;
57615;SDS011;43816;52.054;-9.494;2023-08-12T00:04:51;2.73;;;2.53;;
57615;SDS011;43816;52.054;-9.494;2023-08-12T00:05:01;2.80;;;2.60;;
57615;SDS011;43816;52.054;-9.494;2023-08-12T00:05:48;2.58;;;2.47;;
57615;SDS011;43816;52.054;-9.494;2023-08-12T00:06:21;2.75;;;2.63;;
57615;SDS011;43816;52.054;-9.494;2023-08-12T00:07:05;2.63;;;2.53;;
57615;SDS011;43816;52.054;-9.494;2023-08-12T00:07:22;2.40;;;2.30;;
57615;SDS011;43816;52.054;-9.494;2023-08-12T00:08:05;2.40;;;2.30;;
57615;SDS011;43816;52.054;-9.494;2023-08-12T00:08:21;2.65;;;2.50;;
57615;SDS011;43816;52.054;-9.494;2023-08-12T00:08:32;2.50;;;2.40;;
57615;SDS011;43816;52.054;-9.494;2023-08-12T00:08:45;2.60;;;2.50;;
57615;SDS011;43816;52.054;-9.494;2023-08-12T00:09:14;2.55;;;2.45;;
57615;SDS011;43816;52.054;-9.494;2023-08-12T00:09:29;2.83;;;2.63;;
57615;SDS011;43816;52.054;-9.494;2023-08-12T00:09:42;2.75;;;2.55;;
57615;SDS011;43816;52.054;-9.494;2023-08-12T00:09:57;2.80;;;2.60;;
57615;SDS011;43816;52.054;-9.494;2023-08-12T00:10:12;2.70;;;2.60;;
57615;SDS011;43816;52.054;-9.494;2023-08-12T00:10:24;2.70;;;2.60;;
57615;SDS011;43816;52.054;-9.494;2023-08-12T00:10:35;2.70;;;2.60;;
57615;SDS011;43816;52.054;-9.494;2023-08-12T00:10:49;2.63;;;2.53;;
57615;SDS011;43816;52.054;-9.494;2023-08-12T00:10:59;2.60;;;2.50;;
57615;SDS011;43816;52.054;-9.494;2023-08-12T00:11:12;2.60;;;2.50;;
57615;SDS011;43816;52.054;-9.494;2023-08-12T00:11:26;2.78;;;2.60;;
57615;SDS011;43816;52.054;-9.494;2023-08-12T00:11:36;2.78;;;2.67;;
57615;SDS011;43816;52.054;-9.494;2023-08-12T00:11:50;2.70;;;2.60;;
57615;SDS011;43816;52.054;-9.494;2023-08-12T00:12:18;2.80;;;2.70;;
57615;SDS011;43816;52.054;-9.494;2023-08-12T00:12:38;2.75;;;2.60;;
57615;SDS011;43816;52.054;-9.494;2023-08-12T00:12:58;2.78;;;2.60;;
57615;SDS011;43816;52.054;-9.494;2023-08-12T00:13:11;2.50;;;2.40;;
57615;SDS011;43816;52.054;-9.494;2023-08-12T00:13:21;2.55;;;2.45;;
57615;SDS011;43816;52.054;-9.494;2023-08-12T00:13:32;2.60;;;2.50;;
57615;SDS011;43816;52.054;-9.494;2023-08-12T00:13:42;2.70;;;2.60;;
57615;SDS011;43816;52.054;-9.494;2023-08-12T00:13:52;2.70;;;2.60;;
57615;SDS011;43816;52.054;-9.494;2023-08-12T00:14:04;2.60;;;2.50;;
57615;SDS011;43816;52.054;-9.494;2023-08-12T00:14:17;2.70;;;2.50;;
57615;SDS011;43816;52.054;-9.494;2023-08-12T00:14:27;2.58;;;2.47;;
57615;SDS011;43816;52.054;-9.494;2023-08-12T00:14:43;2.60;;;2.50;;
57615;SDS011;43816;52.054;-9.494;2023-08-12T00:14:54;2.70;;;2.50;;
57615;SDS011;43816;52.054;-9.494;2023-08-12T00:15:08;2.75;;;2.55;;
57615;SDS011;43816;52.054;-9.494;2023-08-12T00:15:22;2.72;;;2.53;;
57615;SDS011;43816;52.054;-9.494;2023-08-12T00:15:41;2.75;;;2.63;;
57615;SDS011;43816;52.054;-9.494;2023-08-12T00:15:51;2.88;;;2.70;;
57615;SDS011;43816;52.054;-9.494;2023-08-12T00:16:05;2.80;;;2.70;;
57615;SDS011;43816;52.054;-9.494;2023-08-12T00:16:18;2.88;;;2.67;;
57615;SDS011;43816;52.054;-9.494;2023-08-12T00:16:31;2.80;;;2.60;;
57615;SDS011;43816;52.054;-9.494;2023-08-12T00:16:45;2.75;;;2.60;;
57615;SDS011;43816;52.054;-9.494;2023-08-12T00:17:01;2.78;;;2.63;;
57615;SDS011;43816;52.054;-9.494;2023-08-12T00:17:17;2.88;;;2.67;;
57615;SDS011;43816;52.054;-9.494;2023-08-12T00:17:34;2.92;;;2.72;;
57615;SDS011;43816;52.054;-9.494;2023-08-12T00:17:44;2.97;;;2.78;;
57615;SDS011;43816;52.054;-9.494;2023-08-12T00:17:57;2.80;;;2.60;;
57615;SDS011;43816;52.054;-9.494;2023-08-12T00:18:07;2.80;;;2.60;;
57615;SDS011;43816;52.054;-9.494;2023-08-12T00:18:18;2.70;;;2.50;;
57615;SDS011;43816;52.054;-9.494;2023-08-12T00:18:31;2.80;;;2.60;;
57615;SDS011;43816;52.054;-9.494;2023-08-12T00:18:44;2.90;;;2.70;;
57615;SDS011;43816;52.054;-9.494;2023-08-12T00:18:56;2.80;;;2.60;;
57615;SDS011;43816;52.054;-9.494;2023-08-12T00:19:11;2.80;;;2.60;;
57615;SDS011;43816;52.054;-9.494;2023-08-12T00:19:22;2.83;;;2.63;;
57615;SDS011;43816;52.054;-9.494;2023-08-12T00:19:32;2.80;;;2.60;;
57615;SDS011;43816;52.054;-9.494;2023-08-12T00:19:45;2.80;;;2.60;;
57615;SDS011;43816;52.054;-9.494;2023-08-12T00:19:59;2.70;;;2.60;;
57615;SDS011;43816;52.054;-9.494;2023-08-12T00:20:12;2.78;;;2.60;;
57615;SDS011;43816;52.054;-9.494;2023-08-12T00:20:27;3.28;;;2.65;;
57615;SDS011;43816;52.054;-9.494;2023-08-12T00:20:41;4.47;;;2.65;;
57615;SDS011;43816;52.054;-9.494;2023-08-12T00:20:54;4.07;;;2.55;;
57615;SDS011;43816;52.054;-9.494;2023-08-12T00:21:07;2.53;;;2.42;;
57615;SDS011;43816;52.054;-9.494;2023-08-12T00:21:18;2.85;;;2.65;;
57615;SDS011;43816;52.054;-9.494;2023-08-12T00:21:31;2.90;;;2.70;;
57615;SDS011;43816;52.054;-9.494;2023-08-12T00:21:45;2.70;;;2.60;;
57615;SDS011;43816;52.054;-9.494;2023-08-12T00:21:58;2.90;;;2.70;;
57615;SDS011;43816;52.054;-9.494;2023-08-12T00:22:11;3.00;;;2.80;;
57615;SDS011;43816;52.054;-9.494;2023-08-12T00:22:24;3.05;;;2.85;;
57615;SDS011;43816;52.054;-9.494;2023-08-12T00:22:40;3.00;;;2.80;;
57615;SDS011;43816;52.054;-9.494;2023-08-12T00:22:52;3.03;;;2.83;;
57615;SDS011;43816;52.054;-9.494;2023-08-12T00:23:06;2.90;;;2.70;;
57615;SDS011;43816;52.054;-9.494;2023-08-12T00:23:22;2.60;;;2.50;;
57615;SDS011;43816;52.054;-9.494;2023-08-12T00:23:53;2.80;;;2.60;;
57615;SDS011;43816;52.054;-9.494;2023-08-12T00:24:07;2.88;;;2.67;;
57615;SDS011;43816;52.054;-9.494;2023-08-12T00:24:22;2.97;;;2.78;;
57615;SDS011;43816;52.054;-9.494;2023-08-12T00:24:38;3.13;;;2.92;;
57615;SDS011;43816;52.054;-9.494;2023-08-12T00:24:52;2.97;;;2.78;;
57615;SDS011;43816;52.054;-9.494;2023-08-12T00:25:07;2.80;;;2.60;;
57615;SDS011;43816;52.054;-9.494;2023-08-12T00:25:21;2.92;;;2.72;;
57615;SDS011;43816;52.054;-9.494;2023-08-12T00:25:36;3.10;;;2.90;;
57615;SDS011;43816;52.054;-9.494;2023-08-12T00:25:52;3.00;;;2.80;;
57615;SDS011;43816;52.054;-9.494;2023-08-12T00:26:10;2.70;;;2.50;;
57615;SDS011;43816;52.054;-9.494;2023-08-12T00:26:20;2.80;;;2.60;;
57615;SDS011;43816;52.054;-9.494;2023-08-12T00:26:35;2.90;;;2.70;;
57615;SDS011;43816;52.054;-9.494;2023-08-12T00:26:50;2.85;;;2.65;;
57615;SDS011;43816;52.054;-9.494;2023-08-12T00:27:05;2.85;;;2.67;;
57615;SDS011;43816;52.054;-9.494;2023-08-12T00:27:19;2.70;;;2.60;;
57615;SDS011;43816;52.054;-9.494;2023-08-12T00:27:29;2.80;;;2.60;;
57615;SDS011;43816;52.054;-9.494;2023-08-12T00:27:40;2.90;;;2.70;;
57615;SDS011;43816;52.054;-9.494;2023-08-12T00:27:53;3.00;;;2.80;;
57615;SDS011;43816;52.054;-9.494;2023-08-12T00:28:09;2.80;;;2.60;;
57615;SDS011;43816;52.054;-9.494;2023-08-12T00:28:23;2.70;;;2.50;;
57615;SDS011;43816;52.054;-9.494;2023-08-12T00:28:37;2.80;;;2.60;;
57615;SDS011;43816;52.054;-9.494;2023-08-12T00:28:50;2.80;;;2.60;;
57615;SDS011;43816;52.054;-9.494;2023-08-12T00:29:03;2.80;;;2.60;;
57615;SDS011;43816;52.054;-9.494;2023-08-12T00:29:19;2.83;;;2.63;;
57615;SDS011;43816;52.054;-9.494;2023-08-12T00:29:29;3.10;;;2.90;;
57615;SDS011;43816;52.054;-9.494;2023-08-12T00:29:39;3.17;;;2.90;;
57615;SDS011;43816;52.054;-9.494;2023-08-12T00:29:50;3.03;;;2.72;;
57615;SDS011;43816;52.054;-9.494;2023-08-12T00:30:03;3.07;;;2.77;;
57615;SDS011;43816;52.054;-9.494;2023-08-12T00:30:17;2.90;;;2.70;;
57615;SDS011;43816;52.054;-9.494;2023-08-12T00:30:31;2.90;;;2.70;;
57615;SDS011;43816;52.054;-9.494;2023-08-12T00:30:41;2.80;;;2.63;;
57615;SDS011;43816;52.054;-9.494;2023-08-12T00:30:51;2.80;;;2.60;;
57615;SDS011;43816;52.054;-9.494;2023-08-12T00:31:05;2.90;;;2.70;;
57615;SDS011;43816;52.054;-9.494;2023-08-12T00:31:18;2.95;;;2.75;;
57615;SDS011;43816;52.054;-9.494;2023-08-12T00:31:31;2.80;;;2.70;;
57615;SDS011;43816;52.054;-9.494;2023-08-12T00:31:47;3.00;;;2.80;;
57615;SDS011;43816;52.054;-9.494;2023-08-12T00:31:57;3.00;;;2.80;;
57615;SDS011;43816;52.054;-9.494;2023-08-12T00:32:11;2.83;;;2.63;;
57615;SDS011;43816;52.054;-9.494;2023-08-12T00:32:25;2.80;;;2.60;;
57615;SDS011;43816;52.054;-9.494;2023-08-12T00:32:40;2.90;;;2.70;;
57615;SDS011;43816;52.054;-9.494;2023-08-12T00:32:50;2.95;;;2.75;;
57615;SDS011;43816;52.054;-9.494;2023-08-12T00:33:03;3.07;;;2.80;;
57615;SDS011;43816;52.054;-9.494;2023-08-12T00:33:13;2.90;;;2.70;;
57615;SDS011;43816;52.054;-9.494;2023-08-12T00:33:27;2.90;;;2.70;;
57615;SDS011;43816;52.054;-9.494;2023-08-12T00:33:41;2.90;;;2.70;;
57615;SDS011;43816;52.054;-9.494;2023-08-12T00:33:51;2.97;;;2.78;;
57615;SDS011;43816;52.054;-9.494;2023-08-12T00:34:04;3.08;;;2.88;;
57615;SDS011;43816;52.054;-9.494;2023-08-12T00:34:17;3.03;;;2.83;;
57615;SDS011;43816;52.054;-9.494;2023-08-12T00:34:30;3.13;;;2.83;;
57615;SDS011;43816;52.054;-9.494;2023-08-12T00:34:41;3.05;;;2.80;;
57615;SDS011;43816;52.054;-9.494;2023-08-12T00:34:52;2.90;;;2.70;;
57615;SDS011;43816;52.054;-9.494;2023-08-12T00:35:02;2.87;;;2.67;;
57615;SDS011;43816;52.054;-9.494;2023-08-12T00:35:13;2.80;;;2.60;;
57615;SDS011;43816;52.054;-9.494;2023-08-12T00:35:23;2.90;;;2.70;;
57615;SDS011;43816;52.054;-9.494;2023-08-12T00:35:36;2.90;;;2.70;;
57615;SDS011;43816;52.054;-9.494;2023-08-12T00:35:49;2.90;;;2.70;;
57615;SDS011;43816;52.054;-9.494;2023-08-12T00:35:59;3.05;;;2.80;;
57615;SDS011;43816;52.054;-9.494;2023-08-12T00:36:15;3.00;;;2.80;;
57615;SDS011;43816;52.054;-9.494;2023-08-12T00:36:28;3.08;;;2.80;;
57615;SDS011;43816;52.054;-9.494;2023-08-12T00:36:44;2.90;;;2.70;;
57615;SDS011;43816;52.054;-9.494;2023-08-12T00:37:00;2.90;;;2.70;;
57615;SDS011;43816;52.054;-9.494;2023-08-12T00:37:10;3.00;;;2.80;;
57615;SDS011;43816;52.054;-9.494;2023-08-12T00:37:20;3.00;;;2.80;;
57615;SDS011;43816;52.054;-9.494;2023-08-12T00:37:33;3.00;;;2.80;;
57615;SDS011;43816;52.054;-9.494;2023-08-12T00:37:47;3.00;;;2.80;;
57615;SDS011;43816;52.054;-9.494;2023-08-12T00:38:00;2.75;;;2.60;;
57615;SDS011;43816;52.054;-9.494;2023-08-12T00:38:13;2.80;;;2.63;;
57615;SDS011;43816;52.054;-9.494;2023-08-12T00:38:28;3.10;;;2.90;;
57615;SDS011;43816;52.054;-9.494;2023-08-12T00:38:43;3.10;;;2.90;;
57615;SDS011;43816;52.054;-9.494;2023-08-12T00:38:54;2.95;;;2.75;;
57615;SDS011;43816;52.054;-9.494;2023-08-12T00:39:07;3.00;;;2.80;;
57615;SDS011;43816;52.054;-9.494;2023-08-12T00:39:20;2.92;;;2.70;;
57615;SDS011;43816;52.054;-9.494;2023-08-12T00:39:31;2.90;;;2.70;;
57615;SDS011;43816;52.054;-9.494;2023-08-12T00:39:41;3.08;;;2.80;;
57615;SDS011;43816;52.054;-9.494;2023-08-12T00:39:56;3.13;;;2.83;;
57615;SDS011;43816;52.054;-9.494;2023-08-12T00:40:07;3.20;;;2.90;;
57615;SDS011;43816;52.054;-9.494;2023-08-12T00:40:21;3.28;;;2.97;;
57615;SDS011;43816;52.054;-9.494;2023-08-12T00:40:34;3.15;;;2.90;;
57615;SDS011;43816;52.054;-9.494;2023-08-12T00:40:47;3.10;;;2.90;;
57615;SDS011;43816;52.054;-9.494;2023-08-12T00:41:01;3.20;;;3.00;;
57615;SDS011;43816;52.054;-9.494;2023-08-12T00:41:11;3.20;;;3.00;;
57615;SDS011;43816;52.054;-9.494;2023-08-12T00:41:24;3.10;;;2.90;;
57615;SDS011;43816;52.054;-9.494;2023-08-12T00:41:35;3.05;;;2.80;;
57615;SDS011;43816;52.054;-9.494;2023-08-12T00:41:46;3.10;;;2.80;;
57615;SDS011;43816;52.054;-9.494;2023-08-12T00:42:02;3.30;;;3.00;;
57615;SDS011;43816;52.054;-9.494;2023-08-12T00:42:18;3.33;;;3.00;;
57615;SDS011;43816;52.054;-9.494;2023-08-12T00:42:31;3.20;;;2.90;;
57615;SDS011;43816;52.054;-9.494;2023-08-12T00:42:42;3.22;;;2.92;;
57615;SDS011;43816;52.054;-9.494;2023-08-12T00:42:55;3.10;;;2.80;;
57615;SDS011;43816;52.054;-9.494;2023-08-12T00:43:06;2.95;;;2.75;;
57615;SDS011;43816;52.054;-9.494;2023-08-12T00:43:20;2.90;;;2.70;;
57615;SDS011;43816;52.054;-9.494;2023-08-12T00:43:34;3.03;;;2.80;;
57615;SDS011;43816;52.054;-9.494;2023-08-12T00:43:47;3.10;;;2.80;;
57615;SDS011;43816;52.054;-9.494;2023-08-12T00:43:58;3.30;;;2.70;;
57615;SDS011;43816;52.054;-9.494;2023-08-12T00:44:09;2.95;;;2.70;;
57615;SDS011;43816;52.054;-9.494;2023-08-12T00:44:22;2.93;;;2.73;;
57615;SDS011;43816;52.054;-9.494;2023-08-12T00:44:33;2.90;;;2.70;;
57615;SDS011;43816;52.054;-9.494;2023-08-12T00:44:46;2.90;;;2.70;;
57615;SDS011;43816;52.054;-9.494;2023-08-12T00:44:56;3.15;;;2.80;;
57615;SDS011;43816;52.054;-9.494;2023-08-12T00:45:10;3.20;;;2.80;;
57615;SDS011;43816;52.054;-9.494;2023-08-12T00:45:24;3.50;;;2.90;;
57615;SDS011;43816;52.054;-9.494;2023-08-12T00:45:34;3.22;;;2.92;;
57615;SDS011;43816;52.054;-9.494;2023-08-12T00:45:47;3.13;;;2.92;;
57615;SDS011;43816;52.054;-9.494;2023-08-12T00:45:59;3.17;;;2.90;;
57615;SDS011;43816;52.054;-9.494;2023-08-12T00:46:13;3.20;;;2.90;;
57615;SDS011;43816;52.054;-9.494;2023-08-12T00:46:26;3.20;;;2.97;;
57615;SDS011;43816;52.054;-9.494;2023-08-12T00:46:38;3.35;;;3.05;;
57615;SDS011;43816;52.054;-9.494;2023-08-12T00:46:50;3.38;;;3.08;;
57615;SDS011;43816;52.054;-9.494;2023-08-12T00:47:03;3.30;;;3.00;;
57615;SDS011;43816;52.054;-9.494;2023-08-12T00:47:18;3.20;;;3.00;;
57615;SDS011;43816;52.054;-9.494;2023-08-12T00:47:32;3.03;;;2.83;;
57615;SDS011;43816;52.054;-9.494;2023-08-12T00:47:45;2.92;;;2.72;;
57615;SDS011;43816;52.054;-9.494;2023-08-12T00:47:58;3.00;;;2.80;;
57615;SDS011;43816;52.054;-9.494;2023-08-12T00:48:12;3.10;;;2.90;;
57615;SDS011;43816;52.054;-9.494;2023-08-12T00:48:29;2.97;;;2.78;;
57615;SDS011;43816;52.054;-9.494;2023-08-12T00:48:43;2.90;;;2.70;;
57615;SDS011;43816;52.054;-9.494;2023-08-12T00:48:58;3.05;;;2.85;;
57615;SDS011;43816;52.054;-9.494;2023-08-12T00:49:10;3.10;;;2.80;;
57615;SDS011;43816;52.054;-9.494;2023-08-12T00:49:22;3.20;;;2.90;;
57615;SDS011;43816;52.054;-9.494;2023-08-12T00:49:36;3.20;;;2.90;;
57615;SDS011;43816;52.054;-9.494;2023-08-12T00:49:52;3.05;;;2.80;;
57615;SDS011;43816;52.054;-9.494;2023-08-12T00:50:27;2.92;;;2.72;;
57615;SDS011;43816;52.054;-9.494;2023-08-12T00:50:41;2.90;;;2.70;;
57615;SDS011;43816;52.054;-9.494;2023-08-12T00:50:54;3.00;;;2.80;;
57615;SDS011;43816;52.054;-9.494;2023-08-12T00:51:08;3.00;;;2.80;;
57615;SDS011;43816;52.054;-9.494;2023-08-12T00:51:21;2.97;;;2.78;;
57615;SDS011;43816;52.054;-9.494;2023-08-12T00:51:35;2.95;;;2.75;;
57615;SDS011;43816;52.054;-9.494;2023-08-12T00:51:49;3.08;;;2.88;;
57615;SDS011;43816;52.054;-9.494;2023-08-12T00:52:03;3.00;;;2.80;;
57615;SDS011;43816;52.054;-9.494;2023-08-12T00:52:19;2.75;;;2.55;;
57615;SDS011;43816;52.054;-9.494;2023-08-12T00:52:32;2.90;;;2.70;;
57615;SDS011;43816;52.054;-9.494;2023-08-12T00:52:46;3.20;;;3.00;;
57615;SDS011;43816;52.054;-9.494;2023-08-12T00:53:00;2.97;;;2.78;;
57615;SDS011;43816;52.054;-9.494;2023-08-12T00:53:10;2.90;;;2.70;;
57615;SDS011;43816;52.054;-9.494;2023-08-12T00:53:27;3.13;;;2.92;;
57615;SDS011;43816;52.054;-9.494;2023-08-12T00:53:43;3.35;;;3.08;;
57615;SDS011;43816;52.054;-9.494;2023-08-12T00:53:57;3.38;;;3.10;;
57615;SDS011;43816;52.054;-9.494;2023-08-12T00:54:14;3.22;;;3.03;;
57615;SDS011;43816;52.054;-9.494;2023-08-12T00:54:28;3.00;;;2.80;;
57615;SDS011;43816;52.054;-9.494;2023-08-12T00:54:42;2.97;;;2.70;;
57615;SDS011;43816;52.054;-9.494;2023-08-12T00:54:59;2.97;;;2.78;;
57615;SDS011;43816;52.054;-9.494;2023-08-12T00:55:12;3.00;;;2.80;;
57615;SDS011;43816;52.054;-9.494;2023-08-12T00:55:28;3.00;;;2.80;;
57615;SDS011;43816;52.054;-9.494;2023-08-12T00:55:43;2.90;;;2.70;;
57615;SDS011;43816;52.054;-9.494;2023-08-12T00:55:53;3.05;;;2.80;;
57615;SDS011;43816;52.054;-9.494;2023-08-12T00:56:04;3.13;;;2.90;;
57615;SDS011;43816;52.054;-9.494;2023-08-12T00:56:14;3.13;;;2.90;;
57615;SDS011;43816;52.054;-9.494;2023-08-12T00:56:26;3.05;;;2.85;;
57615;SDS011;43816;52.054;-9.494;2023-08-12T00:56:36;2.90;;;2.70;;
57615;SDS011;43816;52.054;-9.494;2023-08-12T00:56:48;2.95;;;2.75;;
57615;SDS011;43816;52.054;-9.494;2023-08-12T00:56:59;2.80;;;2.60;;
57615;SDS011;43816;52.054;-9.494;2023-08-12T00:57:16;2.78;;;2.58;;
57615;SDS011;43816;52.054;-9.494;2023-08-12T00:57:31;2.70;;;2.50;;
57615;SDS011;43816;52.054;-9.494;2023-08-12T00:57:43;2.90;;;2.60;;
57615;SDS011;43816;52.054;-9.494;2023-08-12T00:57:53;3.50;;;3.00;;
57615;SDS011;43816;52.054;-9.494;2023-08-12T00:58:06;3.63;;;3.27;;
57615;SDS011;43816;52.054;-9.494;2023-08-12T00:58:21;3.33;;;3.03;;
57615;SDS011;43816;52.054;-9.494;2023-08-12T00:58:35;3.10;;;2.80;;
57615;SDS011;43816;52.054;-9.494;2023-08-12T00:58:47;2.92;;;2.72;;
57615;SDS011;43816;52.054;-9.494;2023-08-12T00:59:00;3.10;;;2.90;;
57615;SDS011;43816;52.054;-9.494;2023-08-12T00:59:14;3.22;;;2.92;;
57615;SDS011;43816;52.054;-9.494;2023-08-12T00:59:29;3.08;;;2.80;;
57615;SDS011;43816;52.054;-9.494;2023-08-12T00:59:40;3.00;;;2.70;;
57615;SDS011;43816;52.054;-9.494;2023-08-12T00:59:54;3.05;;;2.80;;
57615;SDS011;43816;52.054;-9.494;2023-08-12T01:00:09;3.00;;;2.80;;
57615;SDS011;43816;52.054;-9.494;2023-08-12T01:00:20;3.15;;;2.95;;
57615;SDS011;43816;52.054;-9.494;2023-08-12T01:00:34;3.30;;;3.00;;
57615;SDS011;43816;52.054;-9.494;2023-08-12T01:00:47;3.42;;;3.10;;
57615;SDS011;43816;52.054;-9.494;2023-08-12T01:01:01;3.45;;;3.00;;
57615;SDS011;43816;52.054;-9.494;2023-08-12T01:01:17;3.58;;;3.05;;
57615;SDS011;43816;52.054;-9.494;2023-08-12T01:01:31;3.35;;;3.05;;
57615;SDS011;43816;52.054;-9.494;2023-08-12T01:01:41;3.38;;;3.08;;
57615;SDS011;43816;52.054;-9.494;2023-08-12T01:01:57;3.20;;;2.90;;
57615;SDS011;43816;52.054;-9.494;2023-08-12T01:02:12;2.85;;;2.65;;
57615;SDS011;43816;52.054;-9.494;2023-08-12T01:02:28;2.88;;;2.67;;
57615;SDS011;43816;52.054;-9.494;2023-08-12T01:02:44;2.97;;;2.70;;
57615;SDS011;43816;52.054;-9.494;2023-08-12T01:02:57;3.15;;;2.85;;
57615;SDS011;43816;52.054;-9.494;2023-08-12T01:03:14;3.33;;;3.00;;
57615;SDS011;43816;52.054;-9.494;2023-08-12T01:03:25;3.47;;;3.17;;
57615;SDS011;43816;52.054;-9.494;2023-08-12T01:03:36;3.53;;;3.22;;
57615;SDS011;43816;52.054;-9.494;2023-08-12T01:03:47;3.40;;;3.10;;
57615;SDS011;43816;52.054;-9.494;2023-08-12T01:04:00;3.27;;;3.03;;
57615;SDS011;43816;52.054;-9.494;2023-08-12T01:04:14;3.55;;;3.25;;
57615;SDS011;43816;52.054;-9.494;2023-08-12T01:04:28;3.53;;;3.22;;
57615;SDS011;43816;52.054;-9.494;2023-08-12T01:04:45;3.58;;;3.28;;
57615;SDS011;43816;52.054;-9.494;2023-08-12T01:04:58;3.58;;;3.28;;
57615;SDS011;43816;52.054;-9.494;2023-08-12T01:05:12;3.80;;;3.20;;
57615;SDS011;43816;52.054;-9.494;2023-08-12T01:05:22;3.45;;;3.10;;
57615;SDS011;43816;52.054;-9.494;2023-08-12T01:05:36;3.38;;;3.08;;
57615;SDS011;43816;52.054;-9.494;2023-08-12T01:05:49;3.20;;;3.00;;
57615;SDS011;43816;52.054;-9.494;2023-08-12T01:06:23;3.15;;;2.85;;
57615;SDS011;43816;52.054;-9.494;2023-08-12T01:06:34;3.40;;;3.10;;
57615;SDS011;43816;52.054;-9.494;2023-08-12T01:06:47;3.50;;;3.20;;
57615;SDS011;43816;52.054;-9.494;2023-08-12T01:06:57;3.40;;;3.10;;
57615;SDS011;43816;52.054;-9.494;2023-08-12T01:07:07;3.40;;;3.10;;
57615;SDS011;43816;52.054;-9.494;2023-08-12T01:07:18;3.20;;;3.00;;
57615;SDS011;43816;52.054;-9.494;2023-08-12T01:07:31;3.45;;;3.15;;
57615;SDS011;43816;52.054;-9.494;2023-08-12T01:07:44;3.40;;;3.10;;
57615;SDS011;43816;52.054;-9.494;2023-08-12T01:07:58;3.25;;;2.97;;
57615;SDS011;43816;52.054;-9.494;2023-08-12T01:08:08;3.28;;;3.00;;
57615;SDS011;43816;52.054;-9.494;2023-08-12T01:08:18;3.40;;;3.10;;
57615;SDS011;43816;52.054;-9.494;2023-08-12T01:08:30;3.40;;;3.10;;
57615;SDS011;43816;52.054;-9.494;2023-08-12T01:08:44;3.45;;;3.15;;
57615;SDS011;43816;52.054;-9.494;2023-08-12T01:08:58;3.47;;;3.15;;
57615;SDS011;43816;52.054;-9.494;2023-08-12T01:09:11;3.40;;;3.10;;
57615;SDS011;43816;52.054;-9.494;2023-08-12T01:09:25;3.30;;;3.00;;
57615;SDS011;43816;52.054;-9.494;2023-08-12T01:09:38;3.13;;;2.85;;
57615;SDS011;43816;52.054;-9.494;2023-08-12T01:09:49;3.17;;;2.88;;
57615;SDS011;43816;52.054;-9.494;2023-08-12T01:09:59;3.30;;;3.00;;
57615;SDS011;43816;52.054;-9.494;2023-08-12T01:10:13;3.23;;;3.03;;
57615;SDS011;43816;52.054;-9.494;2023-08-12T01:10:27;3.40;;;3.10;;
57615;SDS011;43816;52.054;-9.494;2023-08-12T01:10:44;3.40;;;3.10;;
57615;SDS011;43816;52.054;-9.494;2023-08-12T01:11:21;3.10;;;2.90;;
57615;SDS011;43816;52.054;-9.494;2023-08-12T01:12:36;3.17;;;2.97;;
57615;SDS011;43816;52.054;-9.494;2023-08-12T01:12:55;3.45;;;3.15;;
57615;SDS011;43816;52.054;-9.494;2023-08-12T01:13:56;3.10;;;2.80;;
57615;SDS011;43816;52.054;-9.494;2023-08-12T01:15:29;3.30;;;3.00;;
57615;SDS011;43816;52.054;-9.494;2023-08-12T01:15:44;3.45;;;3.08;;
57615;SDS011;43816;52.054;-9.494;2023-08-12T01:15:58;3.30;;;3.00;;
57615;SDS011;43816;52.054;-9.494;2023-08-12T01:16:16;3.45;;;2.90;;
57615;SDS011;43816;52.054;-9.494;2023-08-12T01:16:33;3.45;;;2.90;;
57615;SDS011;43816;52.054;-9.494;2023-08-12T01:17:08;3.50;;;3.20;;
57615;SDS011;43816;52.054;-9.494;2023-08-12T01:17:21;3.33;;;3.03;;
57615;SDS011;43816;52.054;-9.494;2023-08-12T01:17:32;3.30;;;3.00;;
57615;SDS011;43816;52.054;-9.494;2023-08-12T01:17:45;3.25;;;2.90;;
57615;SDS011;43816;52.054;-9.494;2023-08-12T01:17:56;3.78;;;3.00;;
57615;SDS011;43816;52.054;-9.494;2023-08-12T01:18:10;3.92;;;3.00;;
57615;SDS011;43816;52.054;-9.494;2023-08-12T01:18:22;3.38;;;3.08;;
57615;SDS011;43816;52.054;-9.494;2023-08-12T01:18:34;3.50;;;3.20;;
57615;SDS011;43816;52.054;-9.494;2023-08-12T01:18:52;3.50;;;3.20;;
57615;SDS011;43816;52.054;-9.494;2023-08-12T01:19:04;3.30;;;3.00;;
57615;SDS011;43816;52.054;-9.494;2023-08-12T01:19:29;3.97;;;3.35;;
57615;SDS011;43816;52.054;-9.494;2023-08-12T01:19:46;3.60;;;3.28;;
57615;SDS011;43816;52.054;-9.494;2023-08-12T01:20:00;3.30;;;3.00;;
57615;SDS011;43816;52.054;-9.494;2023-08-12T01:20:14;3.00;;;2.80;;
57615;SDS011;43816;52.054;-9.494;2023-08-12T01:20:28;3.20;;;2.90;;
57615;SDS011;43816;52.054;-9.494;2023-08-12T01:20:41;3.40;;;3.00;;
57615;SDS011;43816;52.054;-9.494;2023-08-12T01:20:57;3.67;;;3.05;;
57615;SDS011;43816;52.054;-9.494;2023-08-12T01:21:15;3.28;;;2.97;;
57615;SDS011;43816;52.054;-9.494;2023-08-12T01:21:29;3.42;;;3.13;;
57615;SDS011;43816;52.054;-9.494;2023-08-12T01:21:41;3.70;;;3.15;;
57615;SDS011;43816;52.054;-9.494;2023-08-12T01:21:53;3.38;;;3.00;;
57615;SDS011;43816;52.054;-9.494;2023-08-12T01:22:11;3.15;;;2.85;;
57615;SDS011;43816;52.054;-9.494;2023-08-12T01:22:25;3.13;;;2.83;;
57615;SDS011;43816;52.054;-9.494;2023-08-12T01:22:40;3.20;;;2.90;;
57615;SDS011;43816;52.054;-9.494;2023-08-12T01:23:27;3.40;;;3.10;;
57615;SDS011;43816;52.054;-9.494;2023-08-12T01:23:38;3.20;;;2.90;;
57615;SDS011;43816;52.054;-9.494;2023-08-12T01:23:49;3.20;;;2.90;;
57615;SDS011;43816;52.054;-9.494;2023-08-12T01:24:02;3.00;;;2.80;;
57615;SDS011;43816;52.054;-9.494;2023-08-12T01:24:20;3.35;;;3.05;;
57615;SDS011;43816;52.054;-9.494;2023-08-12T01:24:46;3.75;;;3.10;;
57615;SDS011;43816;52.054;-9.494;2023-08-12T01:25:00;3.58;;;3.25;;
57615;SDS011;43816;52.054;-9.494;2023-08-12T01:25:10;3.90;;;3.40;;
57615;SDS011;43816;52.054;-9.494;2023-08-12T01:25:28;4.05;;;3.40;;
57615;SDS011;43816;52.054;-9.494;2023-08-12T01:25:42;3.40;;;3.03;;
57615;SDS011;43816;52.054;-9.494;2023-08-12T01:25:52;3.20;;;2.90;;
57615;SDS011;43816;52.054;-9.494;2023-08-12T01:26:03;3.08;;;2.83;;
57615;SDS011;43816;52.054;-9.494;2023-08-12T01:26:16;3.10;;;2.80;;
57615;SDS011;43816;52.054;-9.494;2023-08-12T01:26:31;3.60;;;2.88;;
57615;SDS011;43816;52.054;-9.494;2023-08-12T01:26:42;4.03;;;3.20;;
57615;SDS011;43816;52.054;-9.494;2023-08-12T01:26:52;3.70;;;3.20;;
57615;SDS011;43816;52.054;-9.494;2023-08-12T01:27:05;3.40;;;3.10;;
57615;SDS011;43816;52.054;-9.494;2023-08-12T01:27:18;3.40;;;3.00;;
57615;SDS011;43816;52.054;-9.494;2023-08-12T01:27:28;3.72;;;3.20;;